sensor_id;sensor_type;location;lat;lon;timestamp;P1;durP1;ratioP1;P2;durP2;ratioP2
59052;SDS011;44843;44.728;10.396;2023-08-17T00:02:12;12.93;;;11.27;;
59052;SDS011;44843;44.728;10.396;2023-08-17T00:04:38;13.18;;;10.68;;
59052;SDS011;44843;44.728;10.396;2023-08-17T00:09:29;19.52;;;10.77;;
59052;SDS011;44843;44.728;10.396;2023-08-17T00:11:55;12.82;;;10.93;;
59052;SDS011;44843;44.728;10.396;2023-08-17T00:14:21;15.35;;;11.68;;
59052;SDS011;44843;44.728;10.396;2023-08-17T00:16:46;11.82;;;10.63;;
59052;SDS011;44843;44.728;10.396;2023-08-17T00:19:11;12.38;;;10.60;;
59052;SDS011;44843;44.728;10.396;2023-08-17T00:21:37;12.57;;;10.98;;
59052;SDS011;44843;44.728;10.396;2023-08-17T00:24:03;13.68;;;10.65;;
59052;SDS011;44843;44.728;10.396;2023-08-17T00:26:29;16.83;;;11.05;;
59052;SDS011;44843;44.728;10.396;2023-08-17T00:28:54;12.80;;;10.80;;
59052;SDS011;44843;44.728;10.396;2023-08-17T00:31:19;13.15;;;10.50;;
59052;SDS011;44843;44.728;10.396;2023-08-17T00:36:10;22.27;;;10.35;;
59052;SDS011;44843;44.728;10.396;2023-08-17T00:38:35;11.65;;;10.45;;
59052;SDS011;44843;44.728;10.396;2023-08-17T00:43:26;11.32;;;9.90;;
59052;SDS011;44843;44.728;10.396;2023-08-17T00:45:51;12.50;;;11.03;;
59052;SDS011;44843;44.728;10.396;2023-08-17T00:48:18;13.63;;;10.68;;
59052;SDS011;44843;44.728;10.396;2023-08-17T00:50:43;13.93;;;10.32;;
59052;SDS011;44843;44.728;10.396;2023-08-17T00:53:10;13.70;;;10.18;;
59052;SDS011;44843;44.728;10.396;2023-08-17T00:55:41;12.60;;;10.35;;
59052;SDS011;44843;44.728;10.396;2023-08-17T00:58:07;10.82;;;9.70;;
59052;SDS011;44843;44.728;10.396;2023-08-17T01:00:32;13.20;;;9.93;;
59052;SDS011;44843;44.728;10.396;2023-08-17T01:02:58;13.57;;;10.25;;
59052;SDS011;44843;44.728;10.396;2023-08-17T01:05:23;13.10;;;11.70;;
59052;SDS011;44843;44.728;10.396;2023-08-17T01:07:49;12.63;;;11.33;;
59052;SDS011;44843;44.728;10.396;2023-08-17T01:20:25;11.73;;;10.52;;
59052;SDS011;44843;44.728;10.396;2023-08-17T01:22:51;11.48;;;10.13;;
59052;SDS011;44843;44.728;10.396;2023-08-17T01:25:22;11.13;;;10.02;;
59052;SDS011;44843;44.728;10.396;2023-08-17T01:27:48;12.38;;;10.55;;
59052;SDS011;44843;44.728;10.396;2023-08-17T01:30:14;13.60;;;11.97;;
59052;SDS011;44843;44.728;10.396;2023-08-17T01:37:40;12.43;;;11.23;;
59052;SDS011;44843;44.728;10.396;2023-08-17T01:40:07;10.77;;;9.75;;
59052;SDS011;44843;44.728;10.396;2023-08-17T01:42:34;11.90;;;10.75;;
59052;SDS011;44843;44.728;10.396;2023-08-17T01:45:01;11.98;;;10.57;;
59052;SDS011;44843;44.728;10.396;2023-08-17T01:47:26;11.35;;;10.05;;
59052;SDS011;44843;44.728;10.396;2023-08-17T01:49:52;12.93;;;10.82;;
59052;SDS011;44843;44.728;10.396;2023-08-17T01:52:17;13.57;;;10.82;;
59052;SDS011;44843;44.728;10.396;2023-08-17T01:54:43;11.15;;;9.95;;
59052;SDS011;44843;44.728;10.396;2023-08-17T01:57:08;11.88;;;10.32;;
59052;SDS011;44843;44.728;10.396;2023-08-17T01:59:33;11.73;;;10.52;;
59052;SDS011;44843;44.728;10.396;2023-08-17T02:01:59;11.68;;;10.50;;
59052;SDS011;44843;44.728;10.396;2023-08-17T02:04:24;11.88;;;10.68;;
59052;SDS011;44843;44.728;10.396;2023-08-17T02:06:50;12.80;;;11.02;;
59052;SDS011;44843;44.728;10.396;2023-08-17T02:09:15;13.48;;;10.95;;
59052;SDS011;44843;44.728;10.396;2023-08-17T02:11:41;11.95;;;10.77;;
59052;SDS011;44843;44.728;10.396;2023-08-17T02:14:06;12.90;;;9.90;;
59052;SDS011;44843;44.728;10.396;2023-08-17T02:16:31;11.90;;;10.70;;
59052;SDS011;44843;44.728;10.396;2023-08-17T02:18:57;11.68;;;10.40;;
59052;SDS011;44843;44.728;10.396;2023-08-17T02:21:22;11.82;;;10.63;;
59052;SDS011;44843;44.728;10.396;2023-08-17T02:23:47;11.85;;;10.65;;
59052;SDS011;44843;44.728;10.396;2023-08-17T02:26:13;11.50;;;10.30;;
59052;SDS011;44843;44.728;10.396;2023-08-17T02:28:38;11.40;;;10.25;;
59052;SDS011;44843;44.728;10.396;2023-08-17T02:31:04;12.35;;;10.73;;
59052;SDS011;44843;44.728;10.396;2023-08-17T02:33:31;13.27;;;10.50;;
59052;SDS011;44843;44.728;10.396;2023-08-17T02:38:23;12.57;;;11.27;;
59052;SDS011;44843;44.728;10.396;2023-08-17T02:40:49;13.77;;;11.45;;
59052;SDS011;44843;44.728;10.396;2023-08-17T02:43:15;16.00;;;12.00;;
59052;SDS011;44843;44.728;10.396;2023-08-17T02:45:40;15.00;;;11.73;;
59052;SDS011;44843;44.728;10.396;2023-08-17T02:48:05;13.40;;;11.07;;
59052;SDS011;44843;44.728;10.396;2023-08-17T02:50:31;14.82;;;11.65;;
59052;SDS011;44843;44.728;10.396;2023-08-17T02:52:56;13.90;;;11.40;;
59052;SDS011;44843;44.728;10.396;2023-08-17T02:55:22;13.23;;;11.15;;
59052;SDS011;44843;44.728;10.396;2023-08-17T02:57:47;18.23;;;11.77;;
59052;SDS011;44843;44.728;10.396;2023-08-17T03:00:12;15.40;;;11.75;;
59052;SDS011;44843;44.728;10.396;2023-08-17T03:02:38;14.48;;;12.07;;
59052;SDS011;44843;44.728;10.396;2023-08-17T03:05:04;12.90;;;11.00;;
59052;SDS011;44843;44.728;10.396;2023-08-17T03:07:30;14.20;;;12.00;;
59052;SDS011;44843;44.728;10.396;2023-08-17T03:09:55;14.30;;;12.32;;
59052;SDS011;44843;44.728;10.396;2023-08-17T03:12:20;17.58;;;12.07;;
59052;SDS011;44843;44.728;10.396;2023-08-17T03:14:46;13.02;;;11.57;;
59052;SDS011;44843;44.728;10.396;2023-08-17T03:17:11;11.32;;;10.23;;
59052;SDS011;44843;44.728;10.396;2023-08-17T03:19:36;12.80;;;11.50;;
59052;SDS011;44843;44.728;10.396;2023-08-17T03:22:02;13.77;;;11.95;;
59052;SDS011;44843;44.728;10.396;2023-08-17T03:24:27;12.35;;;10.48;;
59052;SDS011;44843;44.728;10.396;2023-08-17T03:26:52;11.95;;;10.73;;
59052;SDS011;44843;44.728;10.396;2023-08-17T03:29:18;12.70;;;11.10;;
59052;SDS011;44843;44.728;10.396;2023-08-17T03:31:43;13.75;;;10.93;;
59052;SDS011;44843;44.728;10.396;2023-08-17T03:34:08;12.30;;;10.98;;
59052;SDS011;44843;44.728;10.396;2023-08-17T03:36:34;16.52;;;11.02;;
59052;SDS011;44843;44.728;10.396;2023-08-17T03:38:59;13.55;;;12.13;;
59052;SDS011;44843;44.728;10.396;2023-08-17T03:41:25;13.43;;;11.88;;
59052;SDS011;44843;44.728;10.396;2023-08-17T03:43:50;12.65;;;11.35;;
59052;SDS011;44843;44.728;10.396;2023-08-17T03:46:15;15.13;;;12.18;;
59052;SDS011;44843;44.728;10.396;2023-08-17T03:48:41;15.50;;;12.60;;
59052;SDS011;44843;44.728;10.396;2023-08-17T03:51:06;14.13;;;12.70;;
59052;SDS011;44843;44.728;10.396;2023-08-17T03:53:32;15.15;;;13.10;;
59052;SDS011;44843;44.728;10.396;2023-08-17T03:55:57;14.05;;;12.48;;
59052;SDS011;44843;44.728;10.396;2023-08-17T03:58:22;13.60;;;12.20;;
59052;SDS011;44843;44.728;10.396;2023-08-17T04:00:51;14.30;;;12.50;;
59052;SDS011;44843;44.728;10.396;2023-08-17T04:03:17;13.00;;;11.70;;
59052;SDS011;44843;44.728;10.396;2023-08-17T04:05:43;13.75;;;12.35;;
59052;SDS011;44843;44.728;10.396;2023-08-17T04:08:08;15.40;;;12.77;;
59052;SDS011;44843;44.728;10.396;2023-08-17T04:10:34;16.48;;;12.73;;
59052;SDS011;44843;44.728;10.396;2023-08-17T04:12:59;19.20;;;14.07;;
59052;SDS011;44843;44.728;10.396;2023-08-17T04:15:24;13.77;;;12.27;;
59052;SDS011;44843;44.728;10.396;2023-08-17T04:17:50;17.02;;;13.75;;
59052;SDS011;44843;44.728;10.396;2023-08-17T04:22:40;16.30;;;13.07;;
59052;SDS011;44843;44.728;10.396;2023-08-17T04:29:58;18.08;;;13.10;;
59052;SDS011;44843;44.728;10.396;2023-08-17T04:32:23;14.52;;;13.02;;
59052;SDS011;44843;44.728;10.396;2023-08-17T04:34:49;16.87;;;15.10;;
59052;SDS011;44843;44.728;10.396;2023-08-17T04:37:14;17.80;;;15.23;;
59052;SDS011;44843;44.728;10.396;2023-08-17T04:39:40;14.40;;;12.88;;
59052;SDS011;44843;44.728;10.396;2023-08-17T04:42:06;15.95;;;13.60;;
59052;SDS011;44843;44.728;10.396;2023-08-17T04:44:31;14.95;;;13.35;;
59052;SDS011;44843;44.728;10.396;2023-08-17T04:46:57;17.67;;;15.00;;
59052;SDS011;44843;44.728;10.396;2023-08-17T04:49:23;13.63;;;12.32;;
59052;SDS011;44843;44.728;10.396;2023-08-17T04:51:48;17.50;;;14.02;;
59052;SDS011;44843;44.728;10.396;2023-08-17T04:54:13;14.90;;;13.40;;
59052;SDS011;44843;44.728;10.396;2023-08-17T04:56:39;14.13;;;12.63;;
59052;SDS011;44843;44.728;10.396;2023-08-17T04:59:04;15.18;;;12.82;;
59052;SDS011;44843;44.728;10.396;2023-08-17T05:01:29;15.82;;;12.63;;
59052;SDS011;44843;44.728;10.396;2023-08-17T05:03:55;14.13;;;12.30;;
59052;SDS011;44843;44.728;10.396;2023-08-17T05:06:20;14.95;;;12.30;;
59052;SDS011;44843;44.728;10.396;2023-08-17T05:08:46;17.05;;;12.05;;
59052;SDS011;44843;44.728;10.396;2023-08-17T05:11:11;15.90;;;11.00;;
59052;SDS011;44843;44.728;10.396;2023-08-17T05:13:37;16.52;;;11.05;;
59052;SDS011;44843;44.728;10.396;2023-08-17T05:16:02;14.23;;;11.38;;
59052;SDS011;44843;44.728;10.396;2023-08-17T05:18:28;13.30;;;11.90;;
59052;SDS011;44843;44.728;10.396;2023-08-17T05:23:19;12.68;;;11.23;;
59052;SDS011;44843;44.728;10.396;2023-08-17T05:25:48;15.37;;;12.27;;
59052;SDS011;44843;44.728;10.396;2023-08-17T05:28:13;14.57;;;10.68;;
59052;SDS011;44843;44.728;10.396;2023-08-17T05:30:39;12.82;;;11.50;;
59052;SDS011;44843;44.728;10.396;2023-08-17T05:33:05;12.32;;;10.82;;
59052;SDS011;44843;44.728;10.396;2023-08-17T05:37:55;11.45;;;10.25;;
59052;SDS011;44843;44.728;10.396;2023-08-17T05:40:21;13.93;;;10.00;;
59052;SDS011;44843;44.728;10.396;2023-08-17T05:45:11;10.43;;;9.35;;
59052;SDS011;44843;44.728;10.396;2023-08-17T05:47:37;13.57;;;9.32;;
59052;SDS011;44843;44.728;10.396;2023-08-17T05:50:02;9.77;;;8.55;;
59052;SDS011;44843;44.728;10.396;2023-08-17T05:52:28;10.45;;;9.45;;
59052;SDS011;44843;44.728;10.396;2023-08-17T05:54:53;11.38;;;9.57;;
59052;SDS011;44843;44.728;10.396;2023-08-17T05:57:18;10.55;;;9.00;;
59052;SDS011;44843;44.728;10.396;2023-08-17T05:59:44;10.68;;;8.65;;
59052;SDS011;44843;44.728;10.396;2023-08-17T06:02:09;13.07;;;8.32;;
59052;SDS011;44843;44.728;10.396;2023-08-17T06:04:35;11.82;;;7.68;;
59052;SDS011;44843;44.728;10.396;2023-08-17T06:07:00;14.77;;;7.55;;
59052;SDS011;44843;44.728;10.396;2023-08-17T06:09:26;9.73;;;7.88;;
59052;SDS011;44843;44.728;10.396;2023-08-17T06:11:51;10.88;;;7.13;;
59052;SDS011;44843;44.728;10.396;2023-08-17T06:14:16;10.73;;;7.45;;
59052;SDS011;44843;44.728;10.396;2023-08-17T06:16:42;9.15;;;6.65;;
59052;SDS011;44843;44.728;10.396;2023-08-17T06:38:32;5.85;;;5.00;;
59052;SDS011;44843;44.728;10.396;2023-08-17T06:40:57;7.75;;;5.07;;
59052;SDS011;44843;44.728;10.396;2023-08-17T06:43:23;5.50;;;4.60;;
59052;SDS011;44843;44.728;10.396;2023-08-17T06:45:48;6.43;;;5.05;;
59052;SDS011;44843;44.728;10.396;2023-08-17T06:48:13;6.20;;;5.10;;
59052;SDS011;44843;44.728;10.396;2023-08-17T06:50:39;6.18;;;5.57;;
59052;SDS011;44843;44.728;10.396;2023-08-17T06:53:04;7.68;;;5.07;;
59052;SDS011;44843;44.728;10.396;2023-08-17T06:55:30;6.60;;;4.70;;
59052;SDS011;44843;44.728;10.396;2023-08-17T06:57:55;10.02;;;3.90;;
59052;SDS011;44843;44.728;10.396;2023-08-17T07:00:22;5.47;;;4.95;;
59052;SDS011;44843;44.728;10.396;2023-08-17T07:02:47;5.45;;;3.70;;
59052;SDS011;44843;44.728;10.396;2023-08-17T08:00:55;7.63;;;4.23;;
59052;SDS011;44843;44.728;10.396;2023-08-17T08:03:20;11.38;;;4.18;;
59052;SDS011;44843;44.728;10.396;2023-08-17T08:05:45;4.45;;;4.03;;
59052;SDS011;44843;44.728;10.396;2023-08-17T08:08:11;5.28;;;4.45;;
59052;SDS011;44843;44.728;10.396;2023-08-17T08:10:36;6.78;;;4.00;;
59052;SDS011;44843;44.728;10.396;2023-08-17T08:13:02;7.72;;;4.32;;
59052;SDS011;44843;44.728;10.396;2023-08-17T08:15:27;5.60;;;4.68;;
59052;SDS011;44843;44.728;10.396;2023-08-17T08:17:53;6.07;;;4.13;;
59052;SDS011;44843;44.728;10.396;2023-08-17T08:20:19;6.18;;;4.75;;
59052;SDS011;44843;44.728;10.396;2023-08-17T08:22:45;6.00;;;5.00;;
59052;SDS011;44843;44.728;10.396;2023-08-17T08:25:10;20.30;;;6.72;;
59052;SDS011;44843;44.728;10.396;2023-08-17T08:27:36;5.30;;;4.38;;
59052;SDS011;44843;44.728;10.396;2023-08-17T08:30:01;6.10;;;4.72;;
59052;SDS011;44843;44.728;10.396;2023-08-17T08:32:26;5.20;;;4.63;;
59052;SDS011;44843;44.728;10.396;2023-08-17T08:34:52;11.25;;;4.55;;
59052;SDS011;44843;44.728;10.396;2023-08-17T08:37:17;8.52;;;4.32;;
59052;SDS011;44843;44.728;10.396;2023-08-17T08:39:49;7.22;;;4.38;;
59052;SDS011;44843;44.728;10.396;2023-08-17T08:44:41;5.43;;;4.45;;
59052;SDS011;44843;44.728;10.396;2023-08-17T08:47:07;7.72;;;4.75;;
59052;SDS011;44843;44.728;10.396;2023-08-17T08:49:33;7.97;;;4.22;;
59052;SDS011;44843;44.728;10.396;2023-08-17T08:52:03;9.68;;;4.60;;
59052;SDS011;44843;44.728;10.396;2023-08-17T08:54:32;5.00;;;4.50;;
59052;SDS011;44843;44.728;10.396;2023-08-17T08:57:03;5.72;;;4.20;;
59052;SDS011;44843;44.728;10.396;2023-08-17T08:59:33;7.28;;;4.85;;
59052;SDS011;44843;44.728;10.396;2023-08-17T09:02:00;7.60;;;4.80;;
59052;SDS011;44843;44.728;10.396;2023-08-17T09:04:26;4.47;;;4.07;;
59052;SDS011;44843;44.728;10.396;2023-08-17T09:06:52;4.78;;;4.30;;
59052;SDS011;44843;44.728;10.396;2023-08-17T09:09:19;6.57;;;4.95;;
59052;SDS011;44843;44.728;10.396;2023-08-17T09:11:44;6.43;;;4.68;;
59052;SDS011;44843;44.728;10.396;2023-08-17T09:14:10;6.65;;;4.10;;
59052;SDS011;44843;44.728;10.396;2023-08-17T09:16:35;7.22;;;4.85;;
59052;SDS011;44843;44.728;10.396;2023-08-17T09:19:01;7.20;;;4.18;;
59052;SDS011;44843;44.728;10.396;2023-08-17T09:21:26;6.65;;;4.20;;
59052;SDS011;44843;44.728;10.396;2023-08-17T09:23:57;5.47;;;4.03;;
59052;SDS011;44843;44.728;10.396;2023-08-17T09:26:23;5.78;;;4.00;;
59052;SDS011;44843;44.728;10.396;2023-08-17T09:28:51;6.53;;;4.38;;
59052;SDS011;44843;44.728;10.396;2023-08-17T09:31:23;7.93;;;4.47;;
59052;SDS011;44843;44.728;10.396;2023-08-17T09:33:52;7.22;;;4.40;;
59052;SDS011;44843;44.728;10.396;2023-08-17T09:36:21;5.93;;;4.47;;
59052;SDS011;44843;44.728;10.396;2023-08-17T09:38:50;4.80;;;4.20;;
59052;SDS011;44843;44.728;10.396;2023-08-17T09:41:16;6.68;;;4.82;;
59052;SDS011;44843;44.728;10.396;2023-08-17T09:43:43;4.10;;;3.70;;
59052;SDS011;44843;44.728;10.396;2023-08-17T09:46:08;8.48;;;4.32;;
59052;SDS011;44843;44.728;10.396;2023-08-17T09:48:34;5.57;;;3.97;;
59052;SDS011;44843;44.728;10.396;2023-08-17T09:50:59;4.93;;;4.20;;
59052;SDS011;44843;44.728;10.396;2023-08-17T09:53:26;7.07;;;4.28;;
59052;SDS011;44843;44.728;10.396;2023-08-17T09:55:52;6.82;;;4.82;;
59052;SDS011;44843;44.728;10.396;2023-08-17T09:58:20;7.30;;;3.95;;
59052;SDS011;44843;44.728;10.396;2023-08-17T10:00:46;6.55;;;3.95;;
59052;SDS011;44843;44.728;10.396;2023-08-17T10:03:14;5.65;;;4.28;;
59052;SDS011;44843;44.728;10.396;2023-08-17T10:05:40;6.68;;;5.00;;
59052;SDS011;44843;44.728;10.396;2023-08-17T10:08:08;5.03;;;4.53;;
59052;SDS011;44843;44.728;10.396;2023-08-17T10:10:37;7.13;;;4.85;;
59052;SDS011;44843;44.728;10.396;2023-08-17T10:13:08;7.90;;;4.97;;
59052;SDS011;44843;44.728;10.396;2023-08-17T10:15:37;7.03;;;4.78;;
59052;SDS011;44843;44.728;10.396;2023-08-17T10:18:09;5.60;;;4.88;;
59052;SDS011;44843;44.728;10.396;2023-08-17T10:20:42;5.40;;;4.57;;
59052;SDS011;44843;44.728;10.396;2023-08-17T10:23:12;8.55;;;4.97;;
59052;SDS011;44843;44.728;10.396;2023-08-17T10:28:08;7.95;;;5.38;;
59052;SDS011;44843;44.728;10.396;2023-08-17T10:30:35;7.43;;;5.22;;
59052;SDS011;44843;44.728;10.396;2023-08-17T10:33:01;8.80;;;5.63;;
59052;SDS011;44843;44.728;10.396;2023-08-17T10:35:29;11.32;;;5.47;;
59052;SDS011;44843;44.728;10.396;2023-08-17T10:37:56;7.95;;;6.25;;
59052;SDS011;44843;44.728;10.396;2023-08-17T10:40:26;8.40;;;4.65;;
59052;SDS011;44843;44.728;10.396;2023-08-17T10:42:53;7.45;;;5.43;;
59052;SDS011;44843;44.728;10.396;2023-08-17T10:48:27;8.93;;;5.60;;
59052;SDS011;44843;44.728;10.396;2023-08-17T10:50:59;9.60;;;6.35;;
59052;SDS011;44843;44.728;10.396;2023-08-17T10:53:27;7.97;;;5.22;;
59052;SDS011;44843;44.728;10.396;2023-08-17T10:56:00;7.82;;;6.28;;
59052;SDS011;44843;44.728;10.396;2023-08-17T10:58:25;10.75;;;6.25;;
59052;SDS011;44843;44.728;10.396;2023-08-17T11:00:54;11.98;;;6.25;;
59052;SDS011;44843;44.728;10.396;2023-08-17T11:03:20;8.00;;;6.43;;
59052;SDS011;44843;44.728;10.396;2023-08-17T11:08:22;9.35;;;6.95;;
59052;SDS011;44843;44.728;10.396;2023-08-17T11:10:48;8.02;;;6.25;;
59052;SDS011;44843;44.728;10.396;2023-08-17T11:13:23;13.02;;;7.40;;
59052;SDS011;44843;44.728;10.396;2023-08-17T11:15:49;11.35;;;7.15;;
59052;SDS011;44843;44.728;10.396;2023-08-17T11:18:14;11.07;;;7.38;;
59052;SDS011;44843;44.728;10.396;2023-08-17T11:20:40;9.43;;;8.30;;
59052;SDS011;44843;44.728;10.396;2023-08-17T11:23:07;10.35;;;8.10;;
59052;SDS011;44843;44.728;10.396;2023-08-17T11:25:33;8.88;;;7.68;;
59052;SDS011;44843;44.728;10.396;2023-08-17T11:28:02;9.77;;;7.15;;
59052;SDS011;44843;44.728;10.396;2023-08-17T11:30:28;9.15;;;6.53;;
59052;SDS011;44843;44.728;10.396;2023-08-17T11:32:55;9.52;;;7.65;;
59052;SDS011;44843;44.728;10.396;2023-08-17T11:35:21;8.82;;;6.70;;
59052;SDS011;44843;44.728;10.396;2023-08-17T11:37:47;9.68;;;7.63;;
59052;SDS011;44843;44.728;10.396;2023-08-17T11:40:13;9.35;;;6.68;;
59052;SDS011;44843;44.728;10.396;2023-08-17T11:42:39;12.10;;;8.02;;
59052;SDS011;44843;44.728;10.396;2023-08-17T11:45:05;8.35;;;7.50;;
59052;SDS011;44843;44.728;10.396;2023-08-17T11:47:34;10.90;;;6.78;;
59052;SDS011;44843;44.728;10.396;2023-08-17T11:50:00;8.80;;;6.80;;
59052;SDS011;44843;44.728;10.396;2023-08-17T11:52:26;10.98;;;7.40;;
59052;SDS011;44843;44.728;10.396;2023-08-17T11:54:54;11.60;;;7.80;;
59052;SDS011;44843;44.728;10.396;2023-08-17T11:57:21;16.23;;;8.52;;
59052;SDS011;44843;44.728;10.396;2023-08-17T11:59:46;10.68;;;8.18;;
59052;SDS011;44843;44.728;10.396;2023-08-17T12:02:12;10.00;;;7.45;;
59052;SDS011;44843;44.728;10.396;2023-08-17T12:04:37;10.15;;;7.43;;
59052;SDS011;44843;44.728;10.396;2023-08-17T12:07:03;10.52;;;7.10;;
59052;SDS011;44843;44.728;10.396;2023-08-17T12:09:28;9.05;;;6.45;;
59052;SDS011;44843;44.728;10.396;2023-08-17T12:12:00;8.77;;;7.30;;
59052;SDS011;44843;44.728;10.396;2023-08-17T12:14:29;11.70;;;7.18;;
59052;SDS011;44843;44.728;10.396;2023-08-17T12:16:55;7.60;;;6.78;;
59052;SDS011;44843;44.728;10.396;2023-08-17T12:19:21;8.73;;;7.30;;
59052;SDS011;44843;44.728;10.396;2023-08-17T12:21:50;8.20;;;7.00;;
59052;SDS011;44843;44.728;10.396;2023-08-17T12:24:16;8.00;;;6.93;;
59052;SDS011;44843;44.728;10.396;2023-08-17T12:26:42;12.27;;;7.38;;
59052;SDS011;44843;44.728;10.396;2023-08-17T12:29:12;11.65;;;8.35;;
59052;SDS011;44843;44.728;10.396;2023-08-17T12:31:38;9.15;;;6.80;;
59052;SDS011;44843;44.728;10.396;2023-08-17T12:34:04;8.25;;;6.22;;
59052;SDS011;44843;44.728;10.396;2023-08-17T12:36:32;7.68;;;6.93;;
59052;SDS011;44843;44.728;10.396;2023-08-17T12:38:58;8.98;;;7.20;;
59052;SDS011;44843;44.728;10.396;2023-08-17T12:41:23;6.95;;;6.03;;
59052;SDS011;44843;44.728;10.396;2023-08-17T12:43:48;8.27;;;6.97;;
59052;SDS011;44843;44.728;10.396;2023-08-17T12:46:14;11.07;;;6.43;;
59052;SDS011;44843;44.728;10.396;2023-08-17T12:48:39;7.22;;;6.38;;
59052;SDS011;44843;44.728;10.396;2023-08-17T12:51:05;6.85;;;6.15;;
59052;SDS011;44843;44.728;10.396;2023-08-17T12:53:31;6.00;;;5.40;;
59052;SDS011;44843;44.728;10.396;2023-08-17T12:55:56;10.45;;;6.28;;
59052;SDS011;44843;44.728;10.396;2023-08-17T12:58:22;10.60;;;6.72;;
59052;SDS011;44843;44.728;10.396;2023-08-17T13:00:47;9.20;;;7.50;;
59052;SDS011;44843;44.728;10.396;2023-08-17T13:03:15;9.65;;;6.53;;
59052;SDS011;44843;44.728;10.396;2023-08-17T13:05:42;9.27;;;7.22;;
59052;SDS011;44843;44.728;10.396;2023-08-17T13:08:07;8.20;;;7.38;;
59052;SDS011;44843;44.728;10.396;2023-08-17T13:10:33;12.50;;;7.53;;
59052;SDS011;44843;44.728;10.396;2023-08-17T13:12:59;8.02;;;7.22;;
59052;SDS011;44843;44.728;10.396;2023-08-17T13:15:24;9.70;;;7.45;;
59052;SDS011;44843;44.728;10.396;2023-08-17T13:17:50;7.60;;;6.70;;
59052;SDS011;44843;44.728;10.396;2023-08-17T13:20:16;9.15;;;7.90;;
59052;SDS011;44843;44.728;10.396;2023-08-17T13:22:41;10.23;;;6.45;;
59052;SDS011;44843;44.728;10.396;2023-08-17T13:25:07;8.70;;;7.32;;
59052;SDS011;44843;44.728;10.396;2023-08-17T13:27:32;9.30;;;7.28;;
59052;SDS011;44843;44.728;10.396;2023-08-17T13:29:58;7.90;;;7.10;;
59052;SDS011;44843;44.728;10.396;2023-08-17T13:32:24;8.30;;;7.50;;
59052;SDS011;44843;44.728;10.396;2023-08-17T13:34:50;8.68;;;6.93;;
59052;SDS011;44843;44.728;10.396;2023-08-17T13:37:15;9.35;;;6.70;;
59052;SDS011;44843;44.728;10.396;2023-08-17T13:39:41;9.82;;;7.00;;
59052;SDS011;44843;44.728;10.396;2023-08-17T13:42:06;9.55;;;6.38;;
59052;SDS011;44843;44.728;10.396;2023-08-17T13:44:32;10.27;;;6.88;;
59052;SDS011;44843;44.728;10.396;2023-08-17T13:46:57;8.05;;;7.25;;
59052;SDS011;44843;44.728;10.396;2023-08-17T13:49:22;12.18;;;7.78;;
59052;SDS011;44843;44.728;10.396;2023-08-17T13:51:48;12.85;;;8.55;;
59052;SDS011;44843;44.728;10.396;2023-08-17T13:54:13;8.77;;;7.28;;
59052;SDS011;44843;44.728;10.396;2023-08-17T13:56:39;8.48;;;7.60;;
59052;SDS011;44843;44.728;10.396;2023-08-17T13:59:04;12.00;;;7.68;;
59052;SDS011;44843;44.728;10.396;2023-08-17T14:01:29;15.77;;;8.10;;
59052;SDS011;44843;44.728;10.396;2023-08-17T14:03:55;9.97;;;7.80;;
59052;SDS011;44843;44.728;10.396;2023-08-17T14:06:20;11.00;;;7.97;;
59052;SDS011;44843;44.728;10.396;2023-08-17T14:08:45;9.25;;;6.95;;
59052;SDS011;44843;44.728;10.396;2023-08-17T14:11:11;10.73;;;7.60;;
59052;SDS011;44843;44.728;10.396;2023-08-17T14:13:36;14.70;;;7.70;;
59052;SDS011;44843;44.728;10.396;2023-08-17T14:16:03;10.32;;;7.45;;
59052;SDS011;44843;44.728;10.396;2023-08-17T14:18:28;9.85;;;6.93;;
59052;SDS011;44843;44.728;10.396;2023-08-17T14:20:54;8.80;;;7.07;;
59052;SDS011;44843;44.728;10.396;2023-08-17T14:23:19;9.68;;;7.80;;
59052;SDS011;44843;44.728;10.396;2023-08-17T14:25:44;14.65;;;7.65;;
59052;SDS011;44843;44.728;10.396;2023-08-17T14:28:10;10.00;;;7.18;;
59052;SDS011;44843;44.728;10.396;2023-08-17T14:30:35;8.50;;;7.07;;
59052;SDS011;44843;44.728;10.396;2023-08-17T14:33:01;11.07;;;8.02;;
59052;SDS011;44843;44.728;10.396;2023-08-17T14:35:26;9.65;;;7.47;;
59052;SDS011;44843;44.728;10.396;2023-08-17T14:37:52;12.93;;;7.70;;
59052;SDS011;44843;44.728;10.396;2023-08-17T14:40:18;11.50;;;7.10;;
59052;SDS011;44843;44.728;10.396;2023-08-17T14:42:44;8.52;;;7.72;;
59052;SDS011;44843;44.728;10.396;2023-08-17T14:45:10;13.10;;;7.80;;
59052;SDS011;44843;44.728;10.396;2023-08-17T14:47:36;8.50;;;7.05;;
59052;SDS011;44843;44.728;10.396;2023-08-17T14:50:02;15.38;;;7.20;;
59052;SDS011;44843;44.728;10.396;2023-08-17T14:52:27;10.77;;;7.30;;
59052;SDS011;44843;44.728;10.396;2023-08-17T14:54:53;13.13;;;8.20;;
59052;SDS011;44843;44.728;10.396;2023-08-17T14:57:18;8.38;;;6.75;;
59052;SDS011;44843;44.728;10.396;2023-08-17T14:59:44;11.25;;;7.63;;
59052;SDS011;44843;44.728;10.396;2023-08-17T15:02:09;10.35;;;7.30;;
59052;SDS011;44843;44.728;10.396;2023-08-17T15:04:35;9.38;;;7.22;;
59052;SDS011;44843;44.728;10.396;2023-08-17T15:07:03;13.90;;;7.25;;
59052;SDS011;44843;44.728;10.396;2023-08-17T15:09:34;13.52;;;7.82;;
59052;SDS011;44843;44.728;10.396;2023-08-17T15:12:00;12.70;;;8.45;;
59052;SDS011;44843;44.728;10.396;2023-08-17T15:14:25;9.93;;;8.02;;
59052;SDS011;44843;44.728;10.396;2023-08-17T15:16:50;12.68;;;8.23;;
59052;SDS011;44843;44.728;10.396;2023-08-17T15:19:16;12.20;;;8.70;;
59052;SDS011;44843;44.728;10.396;2023-08-17T15:21:41;14.95;;;9.30;;
59052;SDS011;44843;44.728;10.396;2023-08-17T15:24:06;13.07;;;8.52;;
59052;SDS011;44843;44.728;10.396;2023-08-17T15:26:32;10.45;;;8.88;;
59052;SDS011;44843;44.728;10.396;2023-08-17T15:28:57;13.65;;;8.43;;
59052;SDS011;44843;44.728;10.396;2023-08-17T15:31:23;11.07;;;9.10;;
59052;SDS011;44843;44.728;10.396;2023-08-17T15:33:48;12.52;;;9.52;;
59052;SDS011;44843;44.728;10.396;2023-08-17T15:36:14;13.63;;;8.98;;
59052;SDS011;44843;44.728;10.396;2023-08-17T15:38:43;13.45;;;8.38;;
59052;SDS011;44843;44.728;10.396;2023-08-17T15:41:08;14.20;;;9.55;;
59052;SDS011;44843;44.728;10.396;2023-08-17T15:43:34;10.63;;;8.68;;
59052;SDS011;44843;44.728;10.396;2023-08-17T15:45:59;10.70;;;9.05;;
59052;SDS011;44843;44.728;10.396;2023-08-17T15:48:24;11.88;;;8.38;;
59052;SDS011;44843;44.728;10.396;2023-08-17T15:50:50;12.05;;;8.52;;
59052;SDS011;44843;44.728;10.396;2023-08-17T15:53:15;10.05;;;7.75;;
59052;SDS011;44843;44.728;10.396;2023-08-17T15:55:41;9.50;;;8.60;;
59052;SDS011;44843;44.728;10.396;2023-08-17T15:58:06;8.68;;;7.70;;
59052;SDS011;44843;44.728;10.396;2023-08-17T16:00:34;14.48;;;8.23;;
59052;SDS011;44843;44.728;10.396;2023-08-17T16:03:00;11.05;;;8.07;;
59052;SDS011;44843;44.728;10.396;2023-08-17T16:05:25;15.00;;;7.95;;
59052;SDS011;44843;44.728;10.396;2023-08-17T16:07:50;8.80;;;7.60;;
59052;SDS011;44843;44.728;10.396;2023-08-17T16:10:16;11.18;;;7.05;;
59052;SDS011;44843;44.728;10.396;2023-08-17T16:12:41;11.45;;;6.95;;
59052;SDS011;44843;44.728;10.396;2023-08-17T16:15:07;8.60;;;6.38;;
59052;SDS011;44843;44.728;10.396;2023-08-17T16:17:32;8.27;;;6.50;;
59052;SDS011;44843;44.728;10.396;2023-08-17T16:19:58;8.82;;;6.60;;
59052;SDS011;44843;44.728;10.396;2023-08-17T16:22:23;8.02;;;7.22;;